sensor_id;sensor_type;location;lat;lon;timestamp;pressure;altitude;pressure_sealevel;temperature;humidity
27437;BME280;14886;51.586;6.722;2023-08-01T00:19:40;997.4;;;16.2;97.9
27437;BME280;14886;51.586;6.722;2023-08-01T00:20:40;997.4;;;16.1;97.9
27437;BME280;14886;51.586;6.722;2023-08-01T00:31:41;997.4;;;16.2;98.0
27437;BME280;14886;51.586;6.722;2023-08-01T00:32:41;997.3;;;16.1;97.9
27437;BME280;14886;51.586;6.722;2023-08-01T00:37:42;997.3;;;16.2;97.9
27437;BME280;14886;51.586;6.722;2023-08-01T00:38:42;997.3;;;16.1;97.9
27437;BME280;14886;51.586;6.722;2023-08-01T00:45:43;997.2;;;16.2;97.7
27437;BME280;14886;51.586;6.722;2023-08-01T00:46:43;997.2;;;16.1;97.8
27437;BME280;14886;51.586;6.722;2023-08-01T01:01:44;996.8;;;16.0;97.6
27437;BME280;14886;51.586;6.722;2023-08-01T01:18:46;996.8;;;16.1;97.7
27437;BME280;14886;51.586;6.722;2023-08-01T01:19:47;996.8;;;16.0;97.7
27437;BME280;14886;51.586;6.722;2023-08-01T01:21:47;996.7;;;16.1;97.6
27437;BME280;14886;51.586;6.722;2023-08-01T01:23:47;996.7;;;16.0;97.7
27437;BME280;14886;51.586;6.722;2023-08-01T01:33:48;996.6;;;16.1;97.3
27437;BME280;14886;51.586;6.722;2023-08-01T01:34:48;996.5;;;16.0;97.4
27437;BME280;14886;51.586;6.722;2023-08-01T01:38:49;996.5;;;16.1;97.1
27437;BME280;14886;51.586;6.722;2023-08-01T01:42:49;996.4;;;16.0;97.6
27437;BME280;14886;51.586;6.722;2023-08-01T01:43:50;996.4;;;16.1;97.6
27437;BME280;14886;51.586;6.722;2023-08-01T01:48:50;996.3;;;16.0;97.9
27437;BME280;14886;51.586;6.722;2023-08-01T01:49:50;996.3;;;16.1;97.8
27437;BME280;14886;51.586;6.722;2023-08-01T01:53:51;996.3;;;16.0;97.7
27437;BME280;14886;51.586;6.722;2023-08-01T01:54:51;996.3;;;16.1;97.7
27437;BME280;14886;51.586;6.722;2023-08-01T02:05:52;996.4;;;16.2;97.8
27437;BME280;14886;51.586;6.722;2023-08-01T02:07:52;996.4;;;16.1;97.8
27437;BME280;14886;51.586;6.722;2023-08-01T02:11:53;996.3;;;16.2;97.6
27437;BME280;14886;51.586;6.722;2023-08-01T02:21:54;996.3;;;16.1;97.2
27437;BME280;14886;51.586;6.722;2023-08-01T02:23:54;996.3;;;16.2;97.2
27437;BME280;14886;51.586;6.722;2023-08-01T02:24:55;996.3;;;16.1;97.1
27437;BME280;14886;51.586;6.722;2023-08-01T02:25:55;996.3;;;16.2;97.1
27437;BME280;14886;51.586;6.722;2023-08-01T02:27:55;996.3;;;16.1;97.2
27437;BME280;14886;51.586;6.722;2023-08-01T02:28:55;996.3;;;16.2;97.2
27437;BME280;14886;51.586;6.722;2023-08-01T02:30:55;996.4;;;16.1;97.1
27437;BME280;14886;51.586;6.722;2023-08-01T02:32:56;996.4;;;16.2;97.2
27437;BME280;14886;51.586;6.722;2023-08-01T02:33:56;996.4;;;16.1;97.3
27437;BME280;14886;51.586;6.722;2023-08-01T02:43:57;996.4;;;16.0;97.4
27437;BME280;14886;51.586;6.722;2023-08-01T02:45:57;996.5;;;16.1;97.2
27437;BME280;14886;51.586;6.722;2023-08-01T02:46:57;996.5;;;16.0;97.4
27437;BME280;14886;51.586;6.722;2023-08-01T02:56:58;996.5;;;15.9;97.0
27437;BME280;14886;51.586;6.722;2023-08-01T03:24:03;996.7;;;15.8;97.0
27437;BME280;14886;51.586;6.722;2023-08-01T03:37:03;996.7;;;15.7;97.0
27437;BME280;14886;51.586;6.722;2023-08-01T03:43:04;996.7;;;15.6;96.7
27437;BME280;14886;51.586;6.722;2023-08-01T03:46:04;996.8;;;15.7;96.4
27437;BME280;14886;51.586;6.722;2023-08-01T03:47:04;996.8;;;15.6;96.7
27437;BME280;14886;51.586;6.722;2023-08-01T03:54:05;996.8;;;15.5;96.8
27437;BME280;14886;51.586;6.722;2023-08-01T03:55:05;996.8;;;15.6;96.8
27437;BME280;14886;51.586;6.722;2023-08-01T04:11:07;997.0;;;15.5;97.0
27437;BME280;14886;51.586;6.722;2023-08-01T04:56:12;997.1;;;15.6;96.0
27437;BME280;14886;51.586;6.722;2023-08-01T04:58:12;997.1;;;15.5;95.9
27437;BME280;14886;51.586;6.722;2023-08-01T05:03:12;997.1;;;15.6;95.9
27437;BME280;14886;51.586;6.722;2023-08-01T05:10:13;997.2;;;15.7;95.7
27437;BME280;14886;51.586;6.722;2023-08-01T05:28:15;997.2;;;15.8;95.4
27437;BME280;14886;51.586;6.722;2023-08-01T05:29:15;997.3;;;15.7;95.8
27437;BME280;14886;51.586;6.722;2023-08-01T05:36:16;997.3;;;15.8;95.2
27437;BME280;14886;51.586;6.722;2023-08-01T05:44:17;997.3;;;15.7;94.9
27437;BME280;14886;51.586;6.722;2023-08-01T05:45:17;997.3;;;15.8;95.0
27437;BME280;14886;51.586;6.722;2023-08-01T05:51:18;997.4;;;15.9;95.4
27437;BME280;14886;51.586;6.722;2023-08-01T05:54:18;997.4;;;15.8;95.0
27437;BME280;14886;51.586;6.722;2023-08-01T05:55:18;997.4;;;15.9;95.3
27437;BME280;14886;51.586;6.722;2023-08-01T06:02:19;997.4;;;16.0;94.4
27437;BME280;14886;51.586;6.722;2023-08-01T06:07:20;997.5;;;15.9;94.3
27437;BME280;14886;51.586;6.722;2023-08-01T06:09:20;997.5;;;16.0;94.5
27437;BME280;14886;51.586;6.722;2023-08-01T06:10:20;997.5;;;15.9;94.7
27437;BME280;14886;51.586;6.722;2023-08-01T06:13:20;997.5;;;16.0;94.6
27437;BME280;14886;51.586;6.722;2023-08-01T06:14:20;997.5;;;15.9;94.0
27437;BME280;14886;51.586;6.722;2023-08-01T06:15:21;997.5;;;16.0;94.5
27437;BME280;14886;51.586;6.722;2023-08-01T06:16:21;997.5;;;16.1;94.5
27437;BME280;14886;51.586;6.722;2023-08-01T06:17:21;997.6;;;16.2;93.9
27437;BME280;14886;51.586;6.722;2023-08-01T06:18:21;997.5;;;16.1;93.9
27437;BME280;14886;51.586;6.722;2023-08-01T06:21:21;997.5;;;16.2;93.6
27437;BME280;14886;51.586;6.722;2023-08-01T06:23:21;997.6;;;16.3;93.5
27437;BME280;14886;51.586;6.722;2023-08-01T06:24:22;997.6;;;16.4;93.4
27437;BME280;14886;51.586;6.722;2023-08-01T06:25:22;997.7;;;16.6;93.1
27437;BME280;14886;51.586;6.722;2023-08-01T06:27:22;997.6;;;16.5;92.4
27437;BME280;14886;51.586;6.722;2023-08-01T06:28:22;997.7;;;16.6;92.9
27437;BME280;14886;51.586;6.722;2023-08-01T06:29:22;997.6;;;16.5;92.5
27437;BME280;14886;51.586;6.722;2023-08-01T06:30:22;997.7;;;16.4;93.1
27437;BME280;14886;51.586;6.722;2023-08-01T06:33:23;997.6;;;16.3;93.0
27437;BME280;14886;51.586;6.722;2023-08-01T06:35:23;997.7;;;16.4;92.7
27437;BME280;14886;51.586;6.722;2023-08-01T06:36:23;997.7;;;16.5;92.7
27437;BME280;14886;51.586;6.722;2023-08-01T06:38:23;997.6;;;16.6;92.4
27437;BME280;14886;51.586;6.722;2023-08-01T06:39:24;997.7;;;16.7;92.6
27437;BME280;14886;51.586;6.722;2023-08-01T06:40:24;997.7;;;16.8;91.7
27437;BME280;14886;51.586;6.722;2023-08-01T06:44:24;997.6;;;16.7;92.0
27437;BME280;14886;51.586;6.722;2023-08-01T06:45:24;997.6;;;16.5;92.4
27437;BME280;14886;51.586;6.722;2023-08-01T06:48:25;997.7;;;16.6;91.5
27437;BME280;14886;51.586;6.722;2023-08-01T06:49:25;997.7;;;16.5;92.1
27437;BME280;14886;51.586;6.722;2023-08-01T06:50:25;997.8;;;16.6;91.7
27437;BME280;14886;51.586;6.722;2023-08-01T06:51:25;997.8;;;16.7;92.2
27437;BME280;14886;51.586;6.722;2023-08-01T06:52:25;997.7;;;16.6;91.8
27437;BME280;14886;51.586;6.722;2023-08-01T06:55:26;997.8;;;16.7;91.1
27437;BME280;14886;51.586;6.722;2023-08-01T06:56:26;997.8;;;16.9;91.3
27437;BME280;14886;51.586;6.722;2023-08-01T06:57:26;997.8;;;16.8;90.9
27437;BME280;14886;51.586;6.722;2023-08-01T07:00:26;997.8;;;16.9;90.8
27437;BME280;14886;51.586;6.722;2023-08-01T07:01:26;997.8;;;16.8;91.6
27437;BME280;14886;51.586;6.722;2023-08-01T07:02:26;997.8;;;17.1;90.5
27437;BME280;14886;51.586;6.722;2023-08-01T07:03:27;997.8;;;17.2;89.6
27437;BME280;14886;51.586;6.722;2023-08-01T07:04:27;997.7;;;17.0;89.8
27437;BME280;14886;51.586;6.722;2023-08-01T07:06:27;997.7;;;17.2;89.8
27437;BME280;14886;51.586;6.722;2023-08-01T07:07:27;997.8;;;17.3;89.6
27437;BME280;14886;51.586;6.722;2023-08-01T07:08:27;997.8;;;17.5;89.4
27437;BME280;14886;51.586;6.722;2023-08-01T07:09:27;997.8;;;17.9;88.8
27437;BME280;14886;51.586;6.722;2023-08-01T07:10:27;997.8;;;17.6;89.6
27437;BME280;14886;51.586;6.722;2023-08-01T07:11:27;997.8;;;17.5;88.9
27437;BME280;14886;51.586;6.722;2023-08-01T07:12:28;997.8;;;17.6;89.2
27437;BME280;14886;51.586;6.722;2023-08-01T07:13:28;997.8;;;17.5;88.7
27437;BME280;14886;51.586;6.722;2023-08-01T07:17:28;997.8;;;17.4;89.6
27437;BME280;14886;51.586;6.722;2023-08-01T07:18:28;997.8;;;17.3;89.0
27437;BME280;14886;51.586;6.722;2023-08-01T07:19:28;997.8;;;17.5;88.9
27437;BME280;14886;51.586;6.722;2023-08-01T07:20:29;997.8;;;17.8;88.5
27437;BME280;14886;51.586;6.722;2023-08-01T07:21:29;997.8;;;18.2;88.6
27437;BME280;14886;51.586;6.722;2023-08-01T07:22:29;997.8;;;18.0;87.8
27437;BME280;14886;51.586;6.722;2023-08-01T07:25:29;998.0;;;18.5;85.8
27437;BME280;14886;51.586;6.722;2023-08-01T07:26:29;998.0;;;19.6;83.3
27437;BME280;14886;51.586;6.722;2023-08-01T07:27:29;997.9;;;19.1;85.0
27437;BME280;14886;51.586;6.722;2023-08-01T07:28:30;997.9;;;18.7;85.0
27437;BME280;14886;51.586;6.722;2023-08-01T07:29:30;997.8;;;18.6;85.0
27437;BME280;14886;51.586;6.722;2023-08-01T07:30:30;997.8;;;18.4;86.1
27437;BME280;14886;51.586;6.722;2023-08-01T07:31:30;997.8;;;18.3;85.9
27437;BME280;14886;51.586;6.722;2023-08-01T07:32:30;997.8;;;18.0;87.2
27437;BME280;14886;51.586;6.722;2023-08-01T07:33:30;997.8;;;17.8;87.8
27437;BME280;14886;51.586;6.722;2023-08-01T07:34:30;997.8;;;17.9;87.8
27437;BME280;14886;51.586;6.722;2023-08-01T07:35:30;997.8;;;18.1;86.1
27437;BME280;14886;51.586;6.722;2023-08-01T07:37:31;997.8;;;17.9;87.0
27437;BME280;14886;51.586;6.722;2023-08-01T07:40:31;997.8;;;17.8;87.9
27437;BME280;14886;51.586;6.722;2023-08-01T07:41:31;997.8;;;17.7;87.9
27437;BME280;14886;51.586;6.722;2023-08-01T07:42:31;997.8;;;17.6;87.4
27437;BME280;14886;51.586;6.722;2023-08-01T07:46:32;997.9;;;17.5;87.8
27437;BME280;14886;51.586;6.722;2023-08-01T07:50:32;997.9;;;17.6;87.7
27437;BME280;14886;51.586;6.722;2023-08-01T07:51:32;997.9;;;17.7;86.6
27437;BME280;14886;51.586;6.722;2023-08-01T07:52:33;997.9;;;17.5;87.7
27437;BME280;14886;51.586;6.722;2023-08-01T07:53:33;997.9;;;17.6;86.6
27437;BME280;14886;51.586;6.722;2023-08-01T07:54:33;997.9;;;17.8;86.5
27437;BME280;14886;51.586;6.722;2023-08-01T07:57:33;997.9;;;17.9;87.2
27437;BME280;14886;51.586;6.722;2023-08-01T07:58:33;997.9;;;17.8;86.9
27437;BME280;14886;51.586;6.722;2023-08-01T07:59:33;998.0;;;18.5;84.5
27437;BME280;14886;51.586;6.722;2023-08-01T08:00:34;998.1;;;19.1;82.2
27437;BME280;14886;51.586;6.722;2023-08-01T08:01:34;998.0;;;19.4;81.3
27437;BME280;14886;51.586;6.722;2023-08-01T08:02:34;998.0;;;19.2;81.9
27437;BME280;14886;51.586;6.722;2023-08-01T08:03:34;998.0;;;19.8;80.2
27437;BME280;14886;51.586;6.722;2023-08-01T08:04:34;997.9;;;19.5;81.0
27437;BME280;14886;51.586;6.722;2023-08-01T08:05:34;997.9;;;18.8;84.0
27437;BME280;14886;51.586;6.722;2023-08-01T08:06:34;997.9;;;17.9;85.7
27437;BME280;14886;51.586;6.722;2023-08-01T08:07:35;997.9;;;18.1;85.5
27437;BME280;14886;51.586;6.722;2023-08-01T08:08:35;997.9;;;18.0;86.7
27437;BME280;14886;51.586;6.722;2023-08-01T08:09:35;997.9;;;18.1;86.0
27437;BME280;14886;51.586;6.722;2023-08-01T08:10:35;997.9;;;18.0;85.2
27437;BME280;14886;51.586;6.722;2023-08-01T08:11:35;997.9;;;17.8;86.5
27437;BME280;14886;51.586;6.722;2023-08-01T08:12:35;998.0;;;17.7;86.4
27437;BME280;14886;51.586;6.722;2023-08-01T08:13:35;998.0;;;17.8;86.5
27437;BME280;14886;51.586;6.722;2023-08-01T08:15:35;998.2;;;18.9;82.7
27437;BME280;14886;51.586;6.722;2023-08-01T08:16:36;998.1;;;19.3;83.4
27437;BME280;14886;51.586;6.722;2023-08-01T08:17:36;998.1;;;19.9;80.4
27437;BME280;14886;51.586;6.722;2023-08-01T08:18:36;998.1;;;19.8;79.5
27437;BME280;14886;51.586;6.722;2023-08-01T08:19:36;998.1;;;20.2;78.2
27437;BME280;14886;51.586;6.722;2023-08-01T08:20:40;998.1;;;20.5;76.8
27437;BME280;14886;51.586;6.722;2023-08-01T08:21:36;998.1;;;21.0;76.8
27437;BME280;14886;51.586;6.722;2023-08-01T08:22:36;998.1;;;21.2;74.9
27437;BME280;14886;51.586;6.722;2023-08-01T08:23:37;998.0;;;20.6;78.2
27437;BME280;14886;51.586;6.722;2023-08-01T08:24:36;998.0;;;20.1;78.2
27437;BME280;14886;51.586;6.722;2023-08-01T08:26:37;998.0;;;20.3;78.7
27437;BME280;14886;51.586;6.722;2023-08-01T08:27:37;997.9;;;19.7;80.0
27437;BME280;14886;51.586;6.722;2023-08-01T08:28:37;998.0;;;19.5;79.3
27437;BME280;14886;51.586;6.722;2023-08-01T08:29:37;998.1;;;20.3;75.8
27437;BME280;14886;51.586;6.722;2023-08-01T08:30:37;998.0;;;20.6;75.8
27437;BME280;14886;51.586;6.722;2023-08-01T08:31:37;997.9;;;20.0;78.5
27437;BME280;14886;51.586;6.722;2023-08-01T08:32:37;997.9;;;19.4;79.1
27437;BME280;14886;51.586;6.722;2023-08-01T08:33:38;997.9;;;18.8;80.5
27437;BME280;14886;51.586;6.722;2023-08-01T08:34:38;997.9;;;18.7;81.4
27437;BME280;14886;51.586;6.722;2023-08-01T08:35:38;997.9;;;18.5;81.7
27437;BME280;14886;51.586;6.722;2023-08-01T08:36:38;998.0;;;18.7;81.0
27437;BME280;14886;51.586;6.722;2023-08-01T08:37:38;998.0;;;19.2;78.9
27437;BME280;14886;51.586;6.722;2023-08-01T08:38:38;997.9;;;19.6;78.1
27437;BME280;14886;51.586;6.722;2023-08-01T08:39:38;998.0;;;19.9;78.2
27437;BME280;14886;51.586;6.722;2023-08-01T08:40:39;998.0;;;20.6;75.3
27437;BME280;14886;51.586;6.722;2023-08-01T08:41:39;998.0;;;20.7;74.9
27437;BME280;14886;51.586;6.722;2023-08-01T08:42:39;997.9;;;20.1;78.5
27437;BME280;14886;51.586;6.722;2023-08-01T08:44:42;997.9;;;20.7;75.8
27437;BME280;14886;51.586;6.722;2023-08-01T08:45:39;998.0;;;21.4;75.5
27437;BME280;14886;51.586;6.722;2023-08-01T08:46:40;998.0;;;21.7;73.9
27437;BME280;14886;51.586;6.722;2023-08-01T08:47:40;998.0;;;21.2;73.4
27437;BME280;14886;51.586;6.722;2023-08-01T08:49:39;998.0;;;21.6;71.6
27437;BME280;14886;51.586;6.722;2023-08-01T08:50:39;998.0;;;21.5;71.9
27437;BME280;14886;51.586;6.722;2023-08-01T08:51:40;998.0;;;21.0;73.1
27437;BME280;14886;51.586;6.722;2023-08-01T08:52:40;998.0;;;21.8;70.8
27437;BME280;14886;51.586;6.722;2023-08-01T08:53:40;998.0;;;21.2;72.0
27437;BME280;14886;51.586;6.722;2023-08-01T08:54:40;998.0;;;21.0;73.0
27437;BME280;14886;51.586;6.722;2023-08-01T08:55:40;998.0;;;20.5;75.2
27437;BME280;14886;51.586;6.722;2023-08-01T08:56:40;998.0;;;20.3;75.2
27437;BME280;14886;51.586;6.722;2023-08-01T08:57:40;997.9;;;19.9;76.1
27437;BME280;14886;51.586;6.722;2023-08-01T08:58:40;997.9;;;19.8;77.9
27437;BME280;14886;51.586;6.722;2023-08-01T08:59:40;998.0;;;20.0;76.5
27437;BME280;14886;51.586;6.722;2023-08-01T09:00:41;998.0;;;20.2;75.3
27437;BME280;14886;51.586;6.722;2023-08-01T09:01:41;998.0;;;20.6;74.1
27437;BME280;14886;51.586;6.722;2023-08-01T09:02:41;998.1;;;21.0;73.0
27437;BME280;14886;51.586;6.722;2023-08-01T09:03:41;998.0;;;21.5;72.9
27437;BME280;14886;51.586;6.722;2023-08-01T09:04:41;997.9;;;20.5;73.0
27437;BME280;14886;51.586;6.722;2023-08-01T09:05:44;997.9;;;20.1;75.0
27437;BME280;14886;51.586;6.722;2023-08-01T09:06:43;997.9;;;20.3;74.1
27437;BME280;14886;51.586;6.722;2023-08-01T09:07:42;998.0;;;20.6;73.8
27437;BME280;14886;51.586;6.722;2023-08-01T09:08:43;997.9;;;20.3;75.4
27437;BME280;14886;51.586;6.722;2023-08-01T09:09:42;997.8;;;19.9;75.9
27437;BME280;14886;51.586;6.722;2023-08-01T09:10:42;997.9;;;19.6;78.1
27437;BME280;14886;51.586;6.722;2023-08-01T09:11:42;997.9;;;19.9;76.3
27437;BME280;14886;51.586;6.722;2023-08-01T09:13:42;997.9;;;19.7;77.5
27437;BME280;14886;51.586;6.722;2023-08-01T09:14:42;997.9;;;19.5;78.3
27437;BME280;14886;51.586;6.722;2023-08-01T09:15:42;997.9;;;19.2;77.6
27437;BME280;14886;51.586;6.722;2023-08-01T09:16:42;997.9;;;19.4;76.9
27437;BME280;14886;51.586;6.722;2023-08-01T09:17:50;998.0;;;19.3;77.1
27437;BME280;14886;51.586;6.722;2023-08-01T09:18:46;998.0;;;19.5;75.9
27437;BME280;14886;51.586;6.722;2023-08-01T09:19:43;998.0;;;19.4;75.8
27437;BME280;14886;51.586;6.722;2023-08-01T09:20:44;998.0;;;19.6;76.0
27437;BME280;14886;51.586;6.722;2023-08-01T09:22:43;998.0;;;19.7;76.6
27437;BME280;14886;51.586;6.722;2023-08-01T09:23:43;998.0;;;19.2;77.1
27437;BME280;14886;51.586;6.722;2023-08-01T09:24:50;998.0;;;19.1;75.9
27437;BME280;14886;51.586;6.722;2023-08-01T09:26:44;997.9;;;18.9;76.7
27437;BME280;14886;51.586;6.722;2023-08-01T09:27:44;997.9;;;19.1;76.5
27437;BME280;14886;51.586;6.722;2023-08-01T09:29:44;998.0;;;19.0;77.3
27437;BME280;14886;51.586;6.722;2023-08-01T09:30:46;998.0;;;18.8;77.0
27437;BME280;14886;51.586;6.722;2023-08-01T09:31:44;998.0;;;18.6;77.1
27437;BME280;14886;51.586;6.722;2023-08-01T09:32:52;998.0;;;18.8;77.6
27437;BME280;14886;51.586;6.722;2023-08-01T09:34:45;998.0;;;19.0;77.6
27437;BME280;14886;51.586;6.722;2023-08-01T09:35:45;998.0;;;18.9;77.8
27437;BME280;14886;51.586;6.722;2023-08-01T09:36:45;998.0;;;19.1;77.3
27437;BME280;14886;51.586;6.722;2023-08-01T09:37:45;998.0;;;19.0;78.5
27437;BME280;14886;51.586;6.722;2023-08-01T09:38:45;998.0;;;18.9;79.4
27437;BME280;14886;51.586;6.722;2023-08-01T09:39:52;998.0;;;18.7;80.3
27437;BME280;14886;51.586;6.722;2023-08-01T09:41:52;998.0;;;18.6;80.4
27437;BME280;14886;51.586;6.722;2023-08-01T09:42:46;998.0;;;18.5;82.0
27437;BME280;14886;51.586;6.722;2023-08-01T09:44:46;998.1;;;18.3;82.7
27437;BME280;14886;51.586;6.722;2023-08-01T09:45:50;998.1;;;18.1;83.4
27437;BME280;14886;51.586;6.722;2023-08-01T09:46:54;998.1;;;18.0;84.7
27437;BME280;14886;51.586;6.722;2023-08-01T09:48:46;998.1;;;17.9;85.6
27437;BME280;14886;51.586;6.722;2023-08-01T09:49:47;998.1;;;18.1;84.4
27437;BME280;14886;51.586;6.722;2023-08-01T09:50:47;998.1;;;17.9;85.2
27437;BME280;14886;51.586;6.722;2023-08-01T09:51:47;998.0;;;18.0;84.0
27437;BME280;14886;51.586;6.722;2023-08-01T09:52:47;998.1;;;17.9;85.6
27437;BME280;14886;51.586;6.722;2023-08-01T09:56:48;998.0;;;18.0;85.2
27437;BME280;14886;51.586;6.722;2023-08-01T09:57:48;998.0;;;17.9;84.6
27437;BME280;14886;51.586;6.722;2023-08-01T09:59:48;998.1;;;18.0;84.3
27437;BME280;14886;51.586;6.722;2023-08-01T10:00:48;998.0;;;17.8;84.6
27437;BME280;14886;51.586;6.722;2023-08-01T10:01:48;998.1;;;17.7;84.7
27437;BME280;14886;51.586;6.722;2023-08-01T10:02:48;998.0;;;17.8;84.5
27437;BME280;14886;51.586;6.722;2023-08-01T10:07:49;998.1;;;17.7;85.5
27437;BME280;14886;51.586;6.722;2023-08-01T10:08:50;998.1;;;17.6;85.8
27437;BME280;14886;51.586;6.722;2023-08-01T10:10:49;998.2;;;17.5;86.4
27437;BME280;14886;51.586;6.722;2023-08-01T10:11:49;998.3;;;17.6;86.3
27437;BME280;14886;51.586;6.722;2023-08-01T10:12:49;998.3;;;17.5;86.3
27437;BME280;14886;51.586;6.722;2023-08-01T10:13:49;998.4;;;17.4;86.6
27437;BME280;14886;51.586;6.722;2023-08-01T10:14:50;998.4;;;17.3;87.0
27437;BME280;14886;51.586;6.722;2023-08-01T10:15:50;998.4;;;17.0;88.7
27437;BME280;14886;51.586;6.722;2023-08-01T10:16:50;998.4;;;16.8;89.7
27437;BME280;14886;51.586;6.722;2023-08-01T10:17:50;998.4;;;16.6;90.5
27437;BME280;14886;51.586;6.722;2023-08-01T10:18:50;998.4;;;16.4;90.2
27437;BME280;14886;51.586;6.722;2023-08-01T10:20:50;998.4;;;16.5;91.2
27437;BME280;14886;51.586;6.722;2023-08-01T10:21:50;998.4;;;16.4;91.4
27437;BME280;14886;51.586;6.722;2023-08-01T10:24:51;998.4;;;16.5;91.5
27437;BME280;14886;51.586;6.722;2023-08-01T10:26:51;998.5;;;16.6;91.8
27437;BME280;14886;51.586;6.722;2023-08-01T10:29:59;998.5;;;16.5;91.9
27437;BME280;14886;51.586;6.722;2023-08-01T10:32:53;998.6;;;16.6;92.5
27437;BME280;14886;51.586;6.722;2023-08-01T10:33:52;998.6;;;16.8;92.5
27437;BME280;14886;51.586;6.722;2023-08-01T10:34:52;998.6;;;16.9;92.0
27437;BME280;14886;51.586;6.722;2023-08-01T10:35:52;998.6;;;17.0;91.4
27437;BME280;14886;51.586;6.722;2023-08-01T10:36:53;998.6;;;16.8;91.8
27437;BME280;14886;51.586;6.722;2023-08-01T10:37:52;998.7;;;16.9;91.0
27437;BME280;14886;51.586;6.722;2023-08-01T10:38:56;998.6;;;17.2;90.4
27437;BME280;14886;51.586;6.722;2023-08-01T10:39:56;998.7;;;17.3;89.6
27437;BME280;14886;51.586;6.722;2023-08-01T10:40:53;998.6;;;17.4;88.9
27437;BME280;14886;51.586;6.722;2023-08-01T10:41:56;998.7;;;17.9;87.8
27437;BME280;14886;51.586;6.722;2023-08-01T10:42:53;998.6;;;18.2;87.3
27437;BME280;14886;51.586;6.722;2023-08-01T10:44:53;998.7;;;18.8;85.9
27437;BME280;14886;51.586;6.722;2023-08-01T10:46:01;998.7;;;19.2;83.4
27437;BME280;14886;51.586;6.722;2023-08-01T10:46:54;998.7;;;20.5;81.3
27437;BME280;14886;51.586;6.722;2023-08-01T10:47:53;998.7;;;20.6;81.7
27437;BME280;14886;51.586;6.722;2023-08-01T10:48:54;998.7;;;20.8;79.1
27437;BME280;14886;51.586;6.722;2023-08-01T10:49:54;998.6;;;20.7;80.6
27437;BME280;14886;51.586;6.722;2023-08-01T10:50:54;998.6;;;20.6;83.3
27437;BME280;14886;51.586;6.722;2023-08-01T10:51:54;998.5;;;19.9;83.0
27437;BME280;14886;51.586;6.722;2023-08-01T10:53:00;998.5;;;19.7;81.8
27437;BME280;14886;51.586;6.722;2023-08-01T10:53:54;998.5;;;18.9;82.4
27437;BME280;14886;51.586;6.722;2023-08-01T10:54:56;998.5;;;18.8;82.5
27437;BME280;14886;51.586;6.722;2023-08-01T10:56:55;998.5;;;18.7;84.3
27437;BME280;14886;51.586;6.722;2023-08-01T10:58:55;998.6;;;18.6;83.0
27437;BME280;14886;51.586;6.722;2023-08-01T11:00:57;998.6;;;18.8;84.0
27437;BME280;14886;51.586;6.722;2023-08-01T11:01:57;998.6;;;18.9;82.8
27437;BME280;14886;51.586;6.722;2023-08-01T11:02:58;998.6;;;19.3;80.0
27437;BME280;14886;51.586;6.722;2023-08-01T11:04:56;998.7;;;19.1;80.5
27437;BME280;14886;51.586;6.722;2023-08-01T11:05:57;998.7;;;19.5;80.6
27437;BME280;14886;51.586;6.722;2023-08-01T11:06:56;998.7;;;19.7;80.3
27437;BME280;14886;51.586;6.722;2023-08-01T11:07:56;998.7;;;19.9;80.2
27437;BME280;14886;51.586;6.722;2023-08-01T11:08:56;998.7;;;20.3;78.8
27437;BME280;14886;51.586;6.722;2023-08-01T11:10:04;998.6;;;19.5;82.2
27437;BME280;14886;51.586;6.722;2023-08-01T11:10:56;998.6;;;19.0;81.8
27437;BME280;14886;51.586;6.722;2023-08-01T11:11:57;998.7;;;19.5;80.5
27437;BME280;14886;51.586;6.722;2023-08-01T11:12:56;998.7;;;19.6;79.8
27437;BME280;14886;51.586;6.722;2023-08-01T11:13:56;998.7;;;19.5;79.6
27437;BME280;14886;51.586;6.722;2023-08-01T11:14:58;998.7;;;20.3;78.3
27437;BME280;14886;51.586;6.722;2023-08-01T11:15:57;998.7;;;20.7;79.5
27437;BME280;14886;51.586;6.722;2023-08-01T11:16:57;998.8;;;20.9;76.9
27437;BME280;14886;51.586;6.722;2023-08-01T11:17:57;998.8;;;21.2;76.4
27437;BME280;14886;51.586;6.722;2023-08-01T11:18:57;998.8;;;21.1;77.0
27437;BME280;14886;51.586;6.722;2023-08-01T11:20:57;998.7;;;20.7;78.3
27437;BME280;14886;51.586;6.722;2023-08-01T11:21:57;998.8;;;20.9;77.9
27437;BME280;14886;51.586;6.722;2023-08-01T11:22:58;998.7;;;20.4;77.6
27437;BME280;14886;51.586;6.722;2023-08-01T11:23:57;998.8;;;20.2;77.8
27437;BME280;14886;51.586;6.722;2023-08-01T11:24:58;998.7;;;19.8;78.7
27437;BME280;14886;51.586;6.722;2023-08-01T11:25:58;998.7;;;19.9;78.8
27437;BME280;14886;51.586;6.722;2023-08-01T11:26:58;998.7;;;20.1;78.7
27437;BME280;14886;51.586;6.722;2023-08-01T11:28:00;998.7;;;19.9;78.7
27437;BME280;14886;51.586;6.722;2023-08-01T11:29:00;998.7;;;19.6;79.4
27437;BME280;14886;51.586;6.722;2023-08-01T11:29:58;998.7;;;19.5;79.2
27437;BME280;14886;51.586;6.722;2023-08-01T11:30:58;998.8;;;19.4;78.2
27437;BME280;14886;51.586;6.722;2023-08-01T11:31:59;998.8;;;19.6;77.8
27437;BME280;14886;51.586;6.722;2023-08-01T11:32:59;998.8;;;19.7;77.8
27437;BME280;14886;51.586;6.722;2023-08-01T11:33:59;998.8;;;19.8;76.9
27437;BME280;14886;51.586;6.722;2023-08-01T11:34:59;998.8;;;19.5;76.6
27437;BME280;14886;51.586;6.722;2023-08-01T11:35:59;998.8;;;19.6;76.6
27437;BME280;14886;51.586;6.722;2023-08-01T11:36:59;998.8;;;20.0;77.1
27437;BME280;14886;51.586;6.722;2023-08-01T11:37:59;998.8;;;20.2;76.7
27437;BME280;14886;51.586;6.722;2023-08-01T11:39:59;998.8;;;20.6;75.4
27437;BME280;14886;51.586;6.722;2023-08-01T11:41:00;998.8;;;20.1;76.3
27437;BME280;14886;51.586;6.722;2023-08-01T11:43:00;998.8;;;20.5;74.5
27437;BME280;14886;51.586;6.722;2023-08-01T11:44:02;998.8;;;20.6;73.3
27437;BME280;14886;51.586;6.722;2023-08-01T11:45:08;998.9;;;21.4;70.5
27437;BME280;14886;51.586;6.722;2023-08-01T11:46:00;998.9;;;21.6;71.5
27437;BME280;14886;51.586;6.722;2023-08-01T11:47:00;998.8;;;21.2;69.2
27437;BME280;14886;51.586;6.722;2023-08-01T11:49:01;998.8;;;21.3;69.6
27437;BME280;14886;51.586;6.722;2023-08-01T11:50:01;998.8;;;21.4;68.9
27437;BME280;14886;51.586;6.722;2023-08-01T11:51:01;998.8;;;21.2;68.9
27437;BME280;14886;51.586;6.722;2023-08-01T11:52:01;998.8;;;21.3;68.3
27437;BME280;14886;51.586;6.722;2023-08-01T11:53:01;998.8;;;21.4;67.5
27437;BME280;14886;51.586;6.722;2023-08-01T11:54:01;998.8;;;21.7;67.4
27437;BME280;14886;51.586;6.722;2023-08-01T11:55:01;998.8;;;22.0;67.2
27437;BME280;14886;51.586;6.722;2023-08-01T11:57:02;998.9;;;22.5;66.9
27437;BME280;14886;51.586;6.722;2023-08-01T11:58:02;998.9;;;22.9;66.2
27437;BME280;14886;51.586;6.722;2023-08-01T11:59:07;998.7;;;22.2;66.9
27437;BME280;14886;51.586;6.722;2023-08-01T12:00:02;998.7;;;21.6;66.7
27437;BME280;14886;51.586;6.722;2023-08-01T12:01:03;998.8;;;21.0;70.1
27437;BME280;14886;51.586;6.722;2023-08-01T12:02:02;998.8;;;20.7;70.1
27437;BME280;14886;51.586;6.722;2023-08-01T12:03:03;998.8;;;20.8;69.1
27437;BME280;14886;51.586;6.722;2023-08-01T12:04:02;998.8;;;21.3;68.6
27437;BME280;14886;51.586;6.722;2023-08-01T12:05:02;998.8;;;21.6;68.9